Time;durP1;ratioP1;P1;durP2;ratioP2;P2;SDS_P1;SDS_P2;PMS_P1;PMS_P2;Temp;Humidity;BMP_temperature;BMP_pressure;BME280_temperature;BME280_humidity;BME280_pressure;Samples;Min_cycle;Max_cycle;Signal;HPM_P1;HPM_P2
2023/06/12 00:02:17;;;;;;;;;;;;;;;;;;5054382;28;19928;-79
2023/06/12 00:04:49;;;;;;;;;;;;;;;;;;5053742;28;20386;-79
2023/06/12 00:07:21;;;;;;;;;;;;;;;;;;5049477;28;20306;-79
2023/06/12 00:09:51;;;;;;;;;;;;;;;;;;5035765;28;19929;-79
2023/06/12 00:12:17;;;;;;;;;;;;;;;;;;5036958;28;19929;-79
2023/06/12 00:14:45;;;;;;;;;;;;;;;;;;5037996;28;19932;-79
2023/06/12 00:17:16;;;;;;;;;;;;;;;;;;5051496;28;20334;-79
2023/06/12 00:19:45;;;;;;;;;;;;;;;;;;5052256;28;19932;-79
2023/06/12 00:22:12;;;;;;;;;;;;;;;;;;5036077;28;19936;-79
2023/06/12 00:24:39;;;;;;;;;;;;;;;;;;5070051;28;19925;-79
2023/06/12 00:27:06;;;;;;;;;;;;;;;;;;5059008;28;19928;-79
2023/06/12 00:29:33;;;;;;;;;;;;;;;;;;5050182;28;19932;-79
2023/06/12 00:32:00;;;;;;;;;;;;;;;;;;5037135;28;20295;-79
2023/06/12 00:34:29;;;;;;;;;;;;;;;;;;5064480;28;19932;-79
2023/06/12 00:36:56;;;;;;;;;;;;;;;;;;5052995;28;19925;-79
2023/06/12 00:39:23;;;;;;;;;;;;;;;;;;5035604;28;20306;-79
2023/06/12 00:41:50;;;;;;;;;;;;;;;;;;5053670;28;19925;-79
2023/06/12 00:44:17;;;;;;;;;;;;;;;;;;5035735;28;19924;-79
2023/06/12 00:46:44;;;;;;;;;;;;;;;;;;5032540;28;19948;-79
2023/06/12 00:49:14;;;;;;;;;;;;;;;;;;5034571;28;20491;-79
2023/06/12 00:51:47;;;;;;;;;;;;;;;;;;5033964;28;19925;-79
2023/06/12 00:54:16;;;;;;;;;;;;;;;;;;5034085;28;20327;-79
2023/06/12 00:56:46;;;;;;;;;;;;;;;;;;5049307;28;20287;-79
2023/06/12 00:59:16;;;;;;;;;;;;;;;;;;5034377;28;20390;-79
2023/06/12 01:01:46;;;;;;;;;;;;;;;;;;5035598;28;19932;-79
2023/06/12 01:04:18;;;;;;;;;;;;;;;;;;5046686;28;19925;-79
2023/06/12 01:06:55;;;;;;;;;;;;;;;;;;5051153;28;20302;-79
2023/06/12 01:09:26;;;;;;;;;;;;;;;;;;5062641;28;19948;-79
2023/06/12 01:11:56;;;;;;;;;;;;;;;;;;5035215;28;19935;-79
2023/06/12 01:14:23;;;;;;;;;;;;;;;;;;5033499;28;20387;-79
2023/06/12 01:16:50;;;;;;;;;;;;;;;;;;5035124;28;19925;-79
2023/06/12 01:19:19;;;;;;;;;;;;;;;;;;5034098;28;20051;-79
2023/06/12 01:21:48;;;;;;;;;;;;;;;;;;5034996;28;19928;-79
2023/06/12 01:24:22;;;;;;;;;;;;;;;;;;5041735;28;19925;-79
2023/06/12 01:26:57;;;;;;;;;;;;;;;;;;5052760;28;19933;-79
2023/06/12 01:29:44;;;;;;;;;;;;;;;;;;5052235;28;19928;-79
2023/06/12 01:32:15;;;;;;;;;;;;;;;;;;5030720;28;19932;-79
2023/06/12 01:34:50;;;;;;;;;;;;;;;;;;5035067;28;20275;-79
2023/06/12 01:37:26;;;;;;;;;;;;;;;;;;5044841;28;19929;-79
2023/06/12 01:39:58;;;;;;;;;;;;;;;;;;5046526;28;19932;-79
2023/06/12 01:42:26;;;;;;;;;;;;;;;;;;5036066;28;19925;-79
2023/06/12 01:44:53;;;;;;;;;;;;;;;;;;5051289;28;19944;-79
2023/06/12 01:47:24;;;;;;;;;;;;;;;;;;5051407;28;20387;-79
2023/06/12 01:49:52;;;;;;;;;;;;;;;;;;5031508;28;19924;-79
2023/06/12 01:52:24;;;;;;;;;;;;;;;;;;5046596;28;19929;-79
2023/06/12 01:54:58;;;;;;;;;;;;;;;;;;5035237;28;19925;-79
2023/06/12 01:57:27;;;;;;;;;;;;;;;;;;5029148;28;19947;-79
2023/06/12 01:59:57;;;;;;;;;;;;;;;;;;5032658;28;20529;-79
2023/06/12 02:02:29;;;;;;;;;;;;;;;;;;5033163;28;19924;-79
2023/06/12 02:04:56;;;;;;;;;;;;;;;;;;5033128;28;20387;-78
2023/06/12 02:07:23;;;;;;;;;;;;;;;;;;5049420;28;20322;-78
2023/06/12 02:09:50;;;;;;;;;;;;;;;;;;5049082;28;19924;-78
2023/06/12 02:12:17;;;;;;;;;;;;;;;;;;5032951;28;19931;-78
2023/06/12 02:14:45;;;;;;;;;;;;;;;;;;5035741;28;19932;-78
2023/06/12 02:17:13;;;;;;;;;;;;;;;;;;5039718;28;19931;-78
2023/06/12 02:19:42;;;;;;;;;;;;;;;;;;5048664;28;20375;-78
2023/06/12 02:22:13;;;;;;;;;;;;;;;;;;5052010;28;19932;-78
2023/06/12 02:24:40;;;;;;;;;;;;;;;;;;5041907;28;20379;-78
2023/06/12 02:27:07;;;;;;;;;;;;;;;;;;5043108;28;19932;-79
2023/06/12 02:29:37;;;;;;;;;;;;;;;;;;5049377;28;20298;-79
2023/06/12 02:32:04;;;;;;;;;;;;;;;;;;5033063;28;19936;-78
2023/06/12 02:34:31;;;;;;;;;;;;;;;;;;5032904;28;19932;-78
2023/06/12 02:36:59;;;;;;;;;;;;;;;;;;5048148;28;19925;-78
2023/06/12 02:39:31;;;;;;;;;;;;;;;;;;5046133;28;19929;-79
2023/06/12 02:42:01;;;;;;;;;;;;;;;;;;5031677;28;20319;-78
2023/06/12 02:44:30;;;;;;;;;;;;;;;;;;5031609;28;20386;-78
2023/06/12 02:46:58;;;;;;;;;;;;;;;;;;5031719;28;20387;-78
2023/06/12 02:49:29;;;;;;;;;;;;;;;;;;5046191;28;20418;-78
2023/06/12 02:52:01;;;;;;;;;;;;;;;;;;5032221;28;19933;-78
2023/06/12 02:54:28;;;;;;;;;;;;;;;;;;5062988;28;19924;-79
2023/06/12 02:56:57;;;;;;;;;;;;;;;;;;5048211;28;19924;-79
2023/06/12 02:59:24;;;;;;;;;;;;;;;;;;5030720;28;19935;-79
2023/06/12 03:01:59;;;;;;;;;;;;;;;;;;5048486;28;19928;-79
2023/06/12 03:04:55;;;;;;;;;;;;;;;;;;5042581;28;19932;-77
2023/06/12 03:07:28;;;;;;;;;;;;;;;;;;5061981;28;19925;-79
2023/06/12 03:09:55;;;;;;;;;;;;;;;;;;5031076;28;19925;-78
2023/06/12 03:12:22;;;;;;;;;;;;;;;;;;5049045;28;19933;-78
2023/06/12 03:14:52;;;;;;;;;;;;;;;;;;5062440;28;19925;-78
2023/06/12 03:17:20;;;;;;;;;;;;;;;;;;5048892;28;19932;-78
2023/06/12 03:19:47;;;;;;;;;;;;;;;;;;5047469;28;19933;-78
2023/06/12 03:22:16;;;;;;;;;;;;;;;;;;5030437;28;19925;-78
2023/06/12 03:24:53;;;;;;;;;;;;;;;;;;5032338;28;19925;-78
2023/06/12 03:27:22;;;;;;;;;;;;;;;;;;5033071;28;20279;-78
2023/06/12 03:29:49;;;;;;;;;;;;;;;;;;5030035;28;19935;-78
2023/06/12 03:32:16;;;;;;;;;;;;;;;;;;5028872;28;19939;-78
2023/06/12 03:34:52;;;;;;;;;;;;;;;;;;5063388;28;20330;-78
2023/06/12 03:37:22;;;;;;;;;;;;;;;;;;5048160;28;19929;-79
2023/06/12 03:39:55;;;;;;;;;;;;;;;;;;5050339;28;20323;-79
2023/06/12 03:42:23;;;;;;;;;;;;;;;;;;5050668;28;20643;-79
2023/06/12 03:44:54;;;;;;;;;;;;;;;;;;5063790;28;19940;-79
2023/06/12 03:47:25;;;;;;;;;;;;;;;;;;5051917;28;19929;-79
2023/06/12 03:49:52;;;;;;;;;;;;;;;;;;5052900;28;20378;-79
2023/06/12 03:52:19;;;;;;;;;;;;;;;;;;5028077;28;20414;-79
2023/06/12 03:54:50;;;;;;;;;;;;;;;;;;5050940;28;19948;-79
2023/06/12 03:57:20;;;;;;;;;;;;;;;;;;5033190;28;19925;-79
2023/06/12 03:59:49;;;;;;;;;;;;;;;;;;5048192;28;19929;-79
2023/06/12 04:02:21;;;;;;;;;;;;;;;;;;5033454;28;19936;-79
2023/06/12 04:04:49;;;;;;;;;;;;;;;;;;5031493;28;19932;-78
2023/06/12 04:07:16;;;;;;;;;;;;;;;;;;5041710;28;19929;-79
2023/06/12 04:09:46;;;;;;;;;;;;;;;;;;5031403;28;19925;-79
2023/06/12 04:12:15;;;;;;;;;;;;;;;;;;5026761;28;19925;-79
2023/06/12 04:14:46;;;;;;;;;;;;;;;;;;5060609;28;19929;-79
2023/06/12 04:17:16;;;;;;;;;;;;;;;;;;5048833;28;19932;-79
2023/06/12 04:19:48;;;;;;;;;;;;;;;;;;5032304;28;19967;-79
2023/06/12 04:22:15;;;;;;;;;;;;;;;;;;5056375;28;19940;-79
2023/06/12 04:24:45;;;;;;;;;;;;;;;;;;5043958;28;19936;-78
2023/06/12 04:27:13;;;;;;;;;;;;;;;;;;5030341;28;19933;-79
2023/06/12 04:29:42;;;;;;;;;;;;;;;;;;5031795;28;19925;-79
2023/06/12 04:32:13;;;;;;;;;;;;;;;;;;5033806;28;19928;-79
2023/06/12 04:34:43;;;;;;;;;;;;;;;;;;5061391;28;20587;-79
2023/06/12 04:37:13;;;;;;;;;;;;;;;;;;5035481;28;19992;-79
2023/06/12 04:39:43;;;;;;;;;;;;;;;;;;5062960;28;19924;-79
2023/06/12 04:42:16;;;;;;;;;;;;;;;;;;5034602;28;19925;-79
2023/06/12 04:44:46;;;;;;;;;;;;;;;;;;5050399;28;19928;-79
2023/06/12 04:47:17;;;;;;;;;;;;;;;;;;5051247;28;19933;-78
2023/06/12 04:49:49;;;;;;;;;;;;;;;;;;5034437;28;20391;-77
2023/06/12 04:52:18;;;;;;;;;;;;;;;;;;5052337;28;19925;-77
2023/06/12 04:54:48;;;;;;;;;;;;;;;;;;5066389;28;19932;-78
2023/06/12 04:57:16;;;;;;;;;;;;;;;;;;5051945;28;19929;-78
2023/06/12 04:59:45;;;;;;;;;;;;;;;;;;5032807;28;19924;-78
2023/06/12 05:02:13;;;;;;;;;;;;;;;;;;5047154;28;19995;-78
2023/06/12 05:04:43;;;;;;;;;;;;;;;;;;5044649;28;19928;-78
2023/06/12 05:07:16;;;;;;;;;;;;;;;;;;5035214;28;20450;-79
2023/06/12 05:09:47;;;;;;;;;;;;;;;;;;5049393;28;19932;-78
2023/06/12 05:12:14;;;;;;;;;;;;;;;;;;5035386;28;19929;-78
2023/06/12 05:14:44;;;;;;;;;;;;;;;;;;5035479;28;19929;-78
2023/06/12 05:17:15;;;;;;;;;;;;;;;;;;5051462;28;19925;-78
2023/06/12 05:19:44;;;;;;;;;;;;;;;;;;5033612;28;20421;-78
2023/06/12 05:22:11;;;;;;;;;;;;;;;;;;5033972;28;19947;-78
2023/06/12 05:24:38;;;;;;;;;;;;;;;;;;5035037;28;19932;-78
2023/06/12 05:27:06;;;;;;;;;;;;;;;;;;5051537;28;19924;-79
2023/06/12 05:29:34;;;;;;;;;;;;;;;;;;5051751;28;19929;-79
2023/06/12 05:32:01;;;;;;;;;;;;;;;;;;5032849;28;19928;-79
2023/06/12 05:34:31;;;;;;;;;;;;;;;;;;5033826;28;19929;-79
2023/06/12 05:37:00;;;;;;;;;;;;;;;;;;5034446;28;19931;-79
2023/06/12 05:39:29;;;;;;;;;;;;;;;;;;5035404;28;20417;-79
2023/06/12 05:41:55;;;;;;;;;;;;;;;;;;5018436;28;19924;-79
2023/06/12 05:44:23;;;;;;;;;;;;;;;;;;5050587;28;20398;-79
2023/06/12 05:46:53;;;;;;;;;;;;;;;;;;5034826;28;20288;-79
2023/06/12 05:49:20;;;;;;;;;;;;;;;;;;5067846;28;19932;-79
2023/06/12 05:51:48;;;;;;;;;;;;;;;;;;5050367;28;19928;-79
2023/06/12 05:54:16;;;;;;;;;;;;;;;;;;5052348;28;19928;-79
2023/06/12 05:56:46;;;;;;;;;;;;;;;;;;5036092;28;19925;-79
2023/06/12 05:59:17;;;;;;;;;;;;;;;;;;5035479;28;19925;-79
2023/06/12 06:01:44;;;;;;;;;;;;;;;;;;5034352;28;19929;-79
2023/06/12 06:04:11;;;;;;;;;;;;;;;;;;5051617;28;19932;-79
2023/06/12 06:06:38;;;;;;;;;;;;;;;;;;5033708;28;19983;-79
2023/06/12 06:09:09;;;;;;;;;;;;;;;;;;5040712;28;19935;-79
2023/06/12 06:11:40;;;;;;;;;;;;;;;;;;5034194;28;19932;-79
2023/06/12 06:14:07;;;;;;;;;;;;;;;;;;5034286;28;19924;-79
2023/06/12 06:16:38;;;;;;;;;;;;;;;;;;5029686;28;19948;-80
2023/06/12 06:19:09;;;;;;;;;;;;;;;;;;5052864;28;20387;-80
2023/06/12 06:21:39;;;;;;;;;;;;;;;;;;5052253;28;19924;-79
2023/06/12 06:24:07;;;;;;;;;;;;;;;;;;5035196;28;19925;-80
2023/06/12 06:26:34;;;;;;;;;;;;;;;;;;5032334;28;20330;-80
2023/06/12 06:29:02;;;;;;;;;;;;;;;;;;5034246;28;19957;-80
2023/06/12 06:31:32;;;;;;;;;;;;;;;;;;5035434;28;20314;-80
2023/06/12 06:33:59;;;;;;;;;;;;;;;;;;5051635;28;19933;-80
2023/06/12 06:36:26;;;;;;;;;;;;;;;;;;5034504;28;19925;-80
2023/06/12 06:38:56;;;;;;;;;;;;;;;;;;5050939;28;19925;-80
2023/06/12 06:41:24;;;;;;;;;;;;;;;;;;5027148;28;19929;-80
2023/06/12 06:43:51;;;;;;;;;;;;;;;;;;5050009;28;19925;-80
2023/06/12 06:46:24;;;;;;;;;;;;;;;;;;5051231;28;20371;-79
2023/06/12 06:48:56;;;;;;;;;;;;;;;;;;5034340;28;19932;-79
2023/06/12 06:51:23;;;;;;;;;;;;;;;;;;5034250;28;19925;-79
2023/06/12 06:53:53;;;;;;;;;;;;;;;;;;5035914;28;19925;-79
2023/06/12 06:56:21;;;;;;;;;;;;;;;;;;5046690;28;19925;-79
2023/06/12 06:58:51;;;;;;;;;;;;;;;;;;5050335;28;19924;-79
2023/06/12 07:01:20;;;;;;;;;;;;;;;;;;5056824;28;19928;-81
2023/06/12 07:03:51;;;;;;;;;;;;;;;;;;5042151;28;19931;-81
2023/06/12 07:06:21;;;;;;;;;;;;;;;;;;5043595;28;19924;-81
2023/06/12 07:08:51;;;;;;;;;;;;;;;;;;5044044;28;19932;-81
2023/06/12 07:11:22;;;;;;;;;;;;;;;;;;5044120;28;20379;-81
2023/06/12 07:13:49;;;;;;;;;;;;;;;;;;5061555;28;19925;-81
2023/06/12 07:16:16;;;;;;;;;;;;;;;;;;5042242;28;19924;-81
2023/06/12 07:18:46;;;;;;;;;;;;;;;;;;5051799;28;19924;-81
2023/06/12 07:21:15;;;;;;;;;;;;;;;;;;5035561;28;19928;-81
2023/06/12 07:23:42;;;;;;;;;;;;;;;;;;5044446;28;19928;-81
2023/06/12 07:26:09;;;;;;;;;;;;;;;;;;5039896;28;19932;-82
2023/06/12 07:28:36;;;;;;;;;;;;;;;;;;5039172;28;19932;-80
2023/06/12 07:31:08;;;;;;;;;;;;;;;;;;5050946;28;19924;-80
2023/06/12 07:33:40;;;;;;;;;;;;;;;;;;5034540;28;20394;-80
2023/06/12 07:36:09;;;;;;;;;;;;;;;;;;5049885;28;20306;-80
2023/06/12 07:38:41;;;;;;;;;;;;;;;;;;5045493;28;19933;-80
2023/06/12 07:41:08;;;;;;;;;;;;;;;;;;5033442;28;19925;-80
2023/06/12 07:43:35;;;;;;;;;;;;;;;;;;5050777;28;20379;-80
2023/06/12 07:46:02;;;;;;;;;;;;;;;;;;5033012;28;19924;-80
2023/06/12 07:48:29;;;;;;;;;;;;;;;;;;5048092;28;19935;-80
2023/06/12 07:51:08;;;;;;;;;;;;;;;;;;5065084;28;19924;-80
2023/06/12 07:53:41;;;;;;;;;;;;;;;;;;5066669;28;20315;-80
2023/06/12 07:56:16;;;;;;;;;;;;;;;;;;5034012;28;19925;-80
2023/06/12 07:58:44;;;;;;;;;;;;;;;;;;5047745;28;20303;-80
2023/06/12 08:01:16;;;;;;;;;;;;;;;;;;5048124;28;19924;-80
2023/06/12 08:03:44;;;;;;;;;;;;;;;;;;5040361;28;20362;-80
2023/06/12 08:06:15;;;;;;;;;;;;;;;;;;5050019;28;19925;-80
2023/06/12 08:08:49;;;;;;;;;;;;;;;;;;5033481;28;19924;-80
2023/06/12 08:11:18;;;;;;;;;;;;;;;;;;5033503;28;19933;-80
2023/06/12 08:13:52;;;;;;;;;;;;;;;;;;5035159;28;20324;-80
2023/06/12 08:16:23;;;;;;;;;;;;;;;;;;5051408;28;19924;-80
2023/06/12 08:18:52;;;;;;;;;;;;;;;;;;5050256;28;19932;-80
2023/06/12 08:21:24;;;;;;;;;;;;;;;;;;5032997;28;19928;-80
2023/06/12 08:23:55;;;;;;;;;;;;;;;;;;5036102;28;19929;-80
2023/06/12 08:26:24;;;;;;;;;;;;;;;;;;5034586;28;19937;-80
2023/06/12 08:28:52;;;;;;;;;;;;;;;;;;5029685;28;19925;-80
2023/06/12 08:31:23;;;;;;;;;;;;;;;;;;5050046;28;19940;-80
2023/06/12 08:33:52;;;;;;;;;;;;;;;;;;5034496;28;19944;-80
2023/06/12 08:36:22;;;;;;;;;;;;;;;;;;5045414;28;19933;-80
2023/06/12 08:38:49;;;;;;;;;;;;;;;;;;5047363;28;19936;-80
2023/06/12 08:41:22;;;;;;;;;;;;;;;;;;5045330;28;19925;-80
2023/06/12 08:43:50;;;;;;;;;;;;;;;;;;5031447;28;19935;-80
2023/06/12 08:46:18;;;;;;;;;;;;;;;;;;5028987;28;19925;-80
2023/06/12 08:48:45;;;;;;;;;;;;;;;;;;5031072;28;19933;-80
2023/06/12 08:51:15;;;;;;;;;;;;;;;;;;5063847;28;19928;-80
2023/06/12 08:53:43;;;;;;;;;;;;;;;;;;5037137;28;19933;-80
2023/06/12 08:56:13;;;;;;;;;;;;;;;;;;5033306;28;19929;-80
2023/06/12 08:58:43;;;;;;;;;;;;;;;;;;5051007;28;19925;-80
2023/06/12 09:01:14;;;;;;;;;;;;;;;;;;5034450;28;19940;-80
2023/06/12 09:03:41;;;;;;;;;;;;;;;;;;5035327;28;19925;-80
2023/06/12 09:06:11;;;;;;;;;;;;;;;;;;5038293;28;20546;-80
2023/06/12 09:08:41;;;;;;;;;;;;;;;;;;5036322;28;19947;-80
2023/06/12 09:11:08;;;;;;;;;;;;;;;;;;5033992;28;19929;-80
2023/06/12 09:13:41;;;;;;;;;;;;;;;;;;5068888;28;19932;-80
2023/06/12 09:16:13;;;;;;;;;;;;;;;;;;5035505;28;20427;-80
2023/06/12 09:18:48;;;;;;;;;;;;;;;;;;5043853;28;19929;-80
2023/06/12 09:21:17;;;;;;;;;;;;;;;;;;5030308;28;19936;-80
2023/06/12 09:23:45;;;;;;;;;;;;;;;;;;5034675;28;19929;-80
2023/06/12 09:26:15;;;;;;;;;;;;;;;;;;5028730;28;19933;-80
2023/06/12 09:28:45;;;;;;;;;;;;;;;;;;5050888;28;19929;-80
2023/06/12 09:31:19;;;;;;;;;;;;;;;;;;5030340;28;19931;-80
2023/06/12 09:33:46;;;;;;;;;;;;;;;;;;5032314;28;19940;-80
2023/06/12 09:36:16;;;;;;;;;;;;;;;;;;5051779;28;19924;-80
2023/06/12 09:38:48;;;;;;;;;;;;;;;;;;5065241;28;19925;-80
2023/06/12 09:41:18;;;;;;;;;;;;;;;;;;5033346;28;19940;-80
2023/06/12 09:43:48;;;;;;;;;;;;;;;;;;5048859;28;19929;-80
2023/06/12 09:46:16;;;;;;;;;;;;;;;;;;5029824;28;19925;-80
2023/06/12 09:48:47;;;;;;;;;;;;;;;;;;5051036;28;19925;-80
2023/06/12 09:51:15;;;;;;;;;;;;;;;;;;5051738;28;19929;-80
2023/06/12 09:53:42;;;;;;;;;;;;;;;;;;5030310;28;20376;-80
2023/06/12 09:56:11;;;;;;;;;;;;;;;;;;5035453;28;19924;-80
2023/06/12 09:58:40;;;;;;;;;;;;;;;;;;5043197;28;20330;-80
2023/06/12 10:01:10;;;;;;;;;;;;;;;;;;5034844;28;19929;-80
2023/06/12 10:03:39;;;;;;;;;;;;;;;;;;5035250;28;19932;-80
2023/06/12 10:06:09;;;;;;;;;;;;;;;;;;5062316;28;19940;-80
2023/06/12 10:08:36;;;;;;;;;;;;;;;;;;5037915;28;19932;-80
2023/06/12 10:11:08;;;;;;;;;;;;;;;;;;5058158;28;20663;-81
2023/06/12 10:13:35;;;;;;;;;;;;;;;;;;5040471;28;19925;-82
2023/06/12 10:16:05;;;;;;;;;;;;;;;;;;5070699;28;19940;-82
2023/06/12 10:18:34;;;;;;;;;;;;;;;;;;5056285;28;19939;-82
2023/06/12 10:21:01;;;;;;;;;;;;;;;;;;5057718;28;19932;-81
2023/06/12 10:23:33;;;;;;;;;;;;;;;;;;5060922;28;19969;-81
2023/06/12 10:26:00;;;;;;;;;;;;;;;;;;5041177;28;19939;-81
2023/06/12 10:28:30;;;;;;;;;;;;;;;;;;5053250;28;19929;-81
2023/06/12 10:31:11;;;;;;;;;;;;;;;;;;5060540;28;19933;-81
2023/06/12 10:33:56;;;;;;;;;;;;;;;;;;5060191;28;19924;-81
2023/06/12 10:36:25;;;;;;;;;;;;;;;;;;5044106;28;19925;-79
2023/06/12 10:39:03;;;;;;;;;;;;;;;;;;5036302;28;19925;-79
2023/06/12 10:41:31;;;;;;;;;;;;;;;;;;5049520;28;19924;-79
2023/06/12 10:44:20;;;;;;;;;;;;;;;;;;5034107;28;19924;-79
2023/06/12 10:46:47;;;;;;;;;;;;;;;;;;5072509;28;20390;-80
2023/06/12 10:49:15;;;;;;;;;;;;;;;;;;5060628;28;19929;-82
2023/06/12 10:52:01;;;;;;;;;;;;;;;;;;5058113;28;19959;-80
2023/06/12 10:54:31;;;;;;;;;;;;;;;;;;5058206;28;19925;-80
2023/06/12 10:57:01;;;;;;;;;;;;;;;;;;5046074;28;19925;-81
2023/06/12 10:59:33;;;;;;;;;;;;;;;;;;5035777;28;19924;-82
2023/06/12 11:02:00;;;;;;;;;;;;;;;;;;5056314;28;19925;-82
2023/06/12 11:04:27;;;;;;;;;;;;;;;;;;5059271;28;19932;-82
2023/06/12 11:06:55;;;;;;;;;;;;;;;;;;5057826;28;19928;-81
2023/06/12 11:09:27;;;;;;;;;;;;;;;;;;5048760;28;19925;-81
2023/06/12 11:11:57;;;;;;;;;;;;;;;;;;5055934;28;20286;-81
2023/06/12 11:14:25;;;;;;;;;;;;;;;;;;5042660;28;19929;-81
2023/06/12 11:16:57;;;;;;;;;;;;;;;;;;5033922;28;20387;-81
2023/06/12 11:19:28;;;;;;;;;;;;;;;;;;5056971;28;19924;-81
2023/06/12 11:21:55;;;;;;;;;;;;;;;;;;5052283;28;19932;-81
2023/06/12 11:24:23;;;;;;;;;;;;;;;;;;5059546;28;19934;-81
2023/06/12 11:26:50;;;;;;;;;;;;;;;;;;5058157;28;19929;-81
2023/06/12 11:29:19;;;;;;;;;;;;;;;;;;5036939;28;19932;-80
2023/06/12 11:31:59;;;;;;;;;;;;;;;;;;5034674;28;20314;-80
2023/06/12 11:34:32;;;;;;;;;;;;;;;;;;5051601;28;19929;-80
2023/06/12 11:36:59;;;;;;;;;;;;;;;;;;5036328;28;19929;-80
2023/06/12 11:39:28;;;;;;;;;;;;;;;;;;5049904;28;19928;-79
2023/06/12 11:41:57;;;;;;;;;;;;;;;;;;5051928;28;19932;-79
2023/06/12 11:44:25;;;;;;;;;;;;;;;;;;5050772;28;20323;-80
2023/06/12 11:47:00;;;;;;;;;;;;;;;;;;5059573;22;19933;-81
2023/06/12 12:11:52;;;;;;;;;;;;;;;;;;5574690;22;19936;-92
2023/06/12 12:14:19;;;;;;;;;;;;;;;;;;5040581;28;19936;-94
2023/06/12 12:16:47;;;;;;;;;;;;;;;;;;5034446;28;19925;-93
2023/06/12 12:19:18;;;;;;;;;;;;;;;;;;5051981;28;19929;-93
2023/06/12 12:21:48;;;;;;;;;;;;;;;;;;5050850;28;20009;-92
2023/06/12 12:24:15;;;;;;;;;;;;;;;;;;5056649;28;19925;-92
2023/06/12 12:26:42;;;;;;;;;;;;;;;;;;5044585;28;19925;-92
2023/06/12 12:29:11;;;;;;;;;;;;;;;;;;5029248;28;19929;-92
2023/06/12 12:31:39;;;;;;;;;;;;;;;;;;5055002;28;19925;-93
2023/06/12 12:34:08;;;;;;;;;;;;;;;;;;5046039;28;19925;-92
2023/06/12 12:36:37;;;;;;;;;;;;;;;;;;5060141;28;19925;-93
2023/06/12 12:39:07;;;;;;;;;;;;;;;;;;5053281;28;19925;-93
2023/06/12 12:41:35;;;;;;;;;;;;;;;;;;5020171;28;19929;-92
2023/06/12 12:44:05;;;;;;;;;;;;;;;;;;5056547;28;19932;-93
2023/06/12 12:46:34;;;;;;;;;;;;;;;;;;5061451;28;19924;-93
2023/06/12 12:49:01;;;;;;;;;;;;;;;;;;5057783;28;19935;-93
2023/06/12 12:51:29;;;;;;;;;;;;;;;;;;5053985;28;19929;-92
2023/06/12 12:53:59;;;;;;;;;;;;;;;;;;5052281;28;19926;-92
2023/06/12 12:56:26;;;;;;;;;;;;;;;;;;5038230;28;20686;-93
2023/06/12 12:59:00;;;;;;;;;;;;;;;;;;5042143;28;19925;-94
2023/06/12 13:01:31;;;;;;;;;;;;;;;;;;5061690;28;19924;-92
2023/06/12 13:03:59;;;;;;;;;;;;;;;;;;5053978;28;20393;-92
2023/06/12 13:06:28;;;;;;;;;;;;;;;;;;5070302;28;19917;-93
2023/06/12 13:08:55;;;;;;;;;;;;;;;;;;5060981;28;19919;-91
2023/06/12 13:11:22;;;;;;;;;;;;;;;;;;5068788;28;19996;-93
2023/06/12 13:13:54;;;;;;;;;;;;;;;;;;5049425;28;19936;-92
2023/06/12 13:16:22;;;;;;;;;;;;;;;;;;5057141;28;19946;-93
2023/06/12 13:18:52;;;;;;;;;;;;;;;;;;5059065;28;20194;-92
2023/06/12 13:21:22;;;;;;;;;;;;;;;;;;5064765;28;19943;-92
2023/06/12 13:23:52;;;;;;;;;;;;;;;;;;5053952;28;19951;-92
2023/06/12 13:26:20;;;;;;;;;;;;;;;;;;5062599;28;19951;-93
2023/06/12 13:28:48;;;;;;;;;;;;;;;;;;5042911;28;19925;-92
2023/06/12 13:31:15;;;;;;;;;;;;;;;;;;5053595;28;19935;-93
2023/06/12 13:33:42;;;;;;;;;;;;;;;;;;5042340;28;19928;-92
2023/06/12 13:36:11;;;;;;;;;;;;;;;;;;5044797;28;19929;-94
2023/06/12 13:38:42;;;;;;;;;;;;;;;;;;5051834;28;20035;-92
2023/06/12 13:41:13;;;;;;;;;;;;;;;;;;5025340;28;19925;-93
2023/06/12 13:43:41;;;;;;;;;;;;;;;;;;5048856;28;19924;-93
2023/06/12 13:46:08;;;;;;;;;;;;;;;;;;5040110;28;19932;-94
2023/06/12 13:48:35;;;;;;;;;;;;;;;;;;5050610;28;19929;-92
2023/06/12 13:51:03;;;;;;;;;;;;;;;;;;5054790;28;19929;-93
2023/06/12 13:53:30;;;;;;;;;;;;;;;;;;5062111;28;19936;-92
2023/06/12 13:55:58;;;;;;;;;;;;;;;;;;5045421;28;19925;-93
2023/06/12 13:58:25;;;;;;;;;;;;;;;;;;5057693;28;19931;-92
2023/06/12 14:00:53;;;;;;;;;;;;;;;;;;5061555;28;19928;-92
2023/06/12 14:03:21;;;;;;;;;;;;;;;;;;5071317;28;19932;-93
2023/06/12 14:05:48;;;;;;;;;;;;;;;;;;5065209;28;19925;-93
2023/06/12 14:08:20;;;;;;;;;;;;;;;;;;5066243;28;20301;-92
2023/06/12 14:10:50;;;;;;;;;;;;;;;;;;5048025;28;19925;-92
2023/06/12 14:13:21;;;;;;;;;;;;;;;;;;5059882;28;19917;-92
2023/06/12 14:15:48;;;;;;;;;;;;;;;;;;5061453;28;20290;-92
2023/06/12 14:18:17;;;;;;;;;;;;;;;;;;5059047;28;19931;-92
2023/06/12 14:20:44;;;;;;;;;;;;;;;;;;5045270;28;19928;-93
2023/06/12 14:23:11;;;;;;;;;;;;;;;;;;5067940;28;19925;-91
2023/06/12 14:25:41;;;;;;;;;;;;;;;;;;5042672;28;19925;-91
2023/06/12 14:28:08;;;;;;;;;;;;;;;;;;5057911;28;19925;-92
2023/06/12 14:30:39;;;;;;;;;;;;;;;;;;5060202;28;19925;-93
2023/06/12 14:33:08;;;;;;;;;;;;;;;;;;5065347;28;19929;-92
2023/06/12 14:35:37;;;;;;;;;;;;;;;;;;5055416;28;19931;-92
2023/06/12 14:38:12;;;;;;;;;;;;;;;;;;5060815;28;19925;-93
2023/06/12 14:40:39;;;;;;;;;;;;;;;;;;5053026;28;19929;-93
2023/06/12 14:43:10;;;;;;;;;;;;;;;;;;5029000;28;20393;-91
2023/06/12 14:45:37;;;;;;;;;;;;;;;;;;5047381;28;19935;-91
2023/06/12 14:48:08;;;;;;;;;;;;;;;;;;5052959;28;19925;-93
2023/06/12 14:50:35;;;;;;;;;;;;;;;;;;5065988;28;19925;-92
2023/06/12 14:53:05;;;;;;;;;;;;;;;;;;5026932;28;19936;-92
2023/06/12 14:55:32;;;;;;;;;;;;;;;;;;5076112;28;19913;-92
2023/06/12 14:57:59;;;;;;;;;;;;;;;;;;5073410;28;19913;-91
2023/06/12 15:00:26;;;;;;;;;;;;;;;;;;5049776;28;19935;-93
2023/06/12 15:02:54;;;;;;;;;;;;;;;;;;5057509;28;19929;-91
2023/06/12 15:05:22;;;;;;;;;;;;;;;;;;5072857;28;19921;-92
2023/06/12 15:07:52;;;;;;;;;;;;;;;;;;5068976;28;19912;-91
2023/06/12 15:10:22;;;;;;;;;;;;;;;;;;5075033;28;19932;-90
2023/06/12 15:12:51;;;;;;;;;;;;;;;;;;5040772;28;19929;-91
2023/06/12 15:15:18;;;;;;;;;;;;;;;;;;5042817;28;19924;-92
2023/06/12 15:17:48;;;;;;;;;;;;;;;;;;5050305;28;19913;-91
2023/06/12 15:20:15;;;;;;;;;;;;;;;;;;5071611;28;19923;-92
2023/06/12 15:22:46;;;;;;;;;;;;;;;;;;5059577;28;19929;-92
2023/06/12 15:25:16;;;;;;;;;;;;;;;;;;5045101;28;19933;-92
2023/06/12 15:27:47;;;;;;;;;;;;;;;;;;5047480;28;19929;-92
2023/06/12 15:30:14;;;;;;;;;;;;;;;;;;5049182;28;19940;-92
2023/06/12 15:32:45;;;;;;;;;;;;;;;;;;5039295;28;19932;-93
2023/06/12 15:35:12;;;;;;;;;;;;;;;;;;5035895;28;19925;-93
2023/06/12 15:37:42;;;;;;;;;;;;;;;;;;5059465;28;19928;-93
2023/06/12 15:40:13;;;;;;;;;;;;;;;;;;5054256;28;19925;-93
2023/06/12 15:42:41;;;;;;;;;;;;;;;;;;5040209;28;20306;-92
2023/06/12 15:45:11;;;;;;;;;;;;;;;;;;5056730;28;19932;-93
2023/06/12 15:47:38;;;;;;;;;;;;;;;;;;5055316;28;19965;-93
2023/06/12 15:50:06;;;;;;;;;;;;;;;;;;5041110;28;19933;-92
2023/06/12 15:52:33;;;;;;;;;;;;;;;;;;5053720;28;19932;-91
2023/06/12 15:55:00;;;;;;;;;;;;;;;;;;5059043;28;19940;-93
2023/06/12 15:57:29;;;;;;;;;;;;;;;;;;5054576;28;19945;-90
2023/06/12 15:59:56;;;;;;;;;;;;;;;;;;5054342;28;19935;-92
2023/06/12 16:02:29;;;;;;;;;;;;;;;;;;5040669;28;19929;-92
2023/06/12 16:04:56;;;;;;;;;;;;;;;;;;5056492;28;19928;-92
2023/06/12 16:07:23;;;;;;;;;;;;;;;;;;5063148;28;19932;-93
2023/06/12 16:09:53;;;;;;;;;;;;;;;;;;5042776;28;19929;-92
2023/06/12 16:12:20;;;;;;;;;;;;;;;;;;5061792;28;19925;-93
2023/06/12 16:14:49;;;;;;;;;;;;;;;;;;5061145;28;19928;-92
2023/06/12 16:17:16;;;;;;;;;;;;;;;;;;5060974;28;19928;-92
2023/06/12 16:19:43;;;;;;;;;;;;;;;;;;5060959;28;19921;-92
2023/06/12 16:22:10;;;;;;;;;;;;;;;;;;5055988;28;19932;-92
2023/06/12 16:24:39;;;;;;;;;;;;;;;;;;5045828;28;19925;-93
2023/06/12 16:27:06;;;;;;;;;;;;;;;;;;5040183;28;19926;-93
2023/06/12 16:29:34;;;;;;;;;;;;;;;;;;5061787;28;19925;-92
2023/06/12 16:32:02;;;;;;;;;;;;;;;;;;5064330;28;19935;-92
2023/06/12 16:34:30;;;;;;;;;;;;;;;;;;5048490;28;19936;-92
2023/06/12 16:36:58;;;;;;;;;;;;;;;;;;5048979;28;19932;-92
2023/06/12 16:39:30;;;;;;;;;;;;;;;;;;5057192;28;19932;-92
2023/06/12 16:42:02;;;;;;;;;;;;;;;;;;5056988;28;20417;-91
2023/06/12 16:44:30;;;;;;;;;;;;;;;;;;5060640;28;19936;-93
2023/06/12 16:46:57;;;;;;;;;;;;;;;;;;5061993;28;19932;-91
2023/06/12 16:49:26;;;;;;;;;;;;;;;;;;5061283;28;19932;-93
2023/06/12 16:51:54;;;;;;;;;;;;;;;;;;5060204;28;19944;-91
2023/06/12 16:54:21;;;;;;;;;;;;;;;;;;5054572;28;19929;-95
2023/06/12 16:56:53;;;;;;;;;;;;;;;;;;5057598;28;19929;-92
2023/06/12 16:59:20;;;;;;;;;;;;;;;;;;5042041;28;19928;-93
2023/06/12 17:01:47;;;;;;;;;;;;;;;;;;5065500;28;19932;-94
2023/06/12 17:04:14;;;;;;;;;;;;;;;;;;5049158;28;19929;-91
2023/06/12 17:06:45;;;;;;;;;;;;;;;;;;5046557;28;19929;-92
2023/06/12 17:09:13;;;;;;;;;;;;;;;;;;5051381;28;20646;-92
2023/06/12 17:11:40;;;;;;;;;;;;;;;;;;5057813;28;19924;-92
2023/06/12 17:14:07;;;;;;;;;;;;;;;;;;5029550;28;19929;-93
2023/06/12 17:16:34;;;;;;;;;;;;;;;;;;5046821;28;19929;-93
2023/06/12 17:19:04;;;;;;;;;;;;;;;;;;5065135;28;19925;-93
2023/06/12 17:21:31;;;;;;;;;;;;;;;;;;5033419;28;19932;-92
2023/06/12 17:24:00;;;;;;;;;;;;;;;;;;5052129;28;19936;-93